createdAt,value
2023-01-10T00:00:35.549Z,98675.66
2023-01-10T00:03:04.318Z,98667.53
2023-01-10T00:05:31.893Z,98661.88
2023-01-10T00:07:59.261Z,98674.06
2023-01-10T00:10:26.142Z,98663.19
2023-01-10T00:13:11.791Z,98667.03
2023-01-10T00:15:39.238Z,98655.59
2023-01-10T00:18:06.430Z,98646.66
2023-01-10T00:20:33.254Z,98655.31
2023-01-10T00:23:00.214Z,98649.34
2023-01-10T00:25:27.486Z,98641.50
2023-01-10T00:28:04.634Z,98659.94
2023-01-10T00:30:34.018Z,98653.41
2023-01-10T00:33:01.184Z,98658.25
2023-01-10T00:35:28.255Z,98627.91
2023-01-10T00:38:01.419Z,98641.75
2023-01-10T00:40:28.354Z,98642.00
2023-01-10T00:43:13.959Z,98648.81
2023-01-10T00:45:40.821Z,98629.28
2023-01-10T00:48:07.716Z,98652.34
2023-01-10T00:50:34.759Z,98635.25
2023-01-10T00:53:01.693Z,98643.13
2023-01-10T00:55:28.726Z,98631.72
2023-01-10T00:57:55.567Z,98626.84
2023-01-10T01:00:22.652Z,98615.41
2023-01-10T01:02:51.759Z,98617.88
2023-01-10T01:05:19.423Z,98600.53
2023-01-10T01:07:51.303Z,98602.31
2023-01-10T01:10:28.142Z,98621.78
2023-01-10T01:12:57.234Z,98620.66
2023-01-10T01:15:25.187Z,98558.16
2023-01-10T01:17:52.125Z,98602.50
2023-01-10T01:20:21.063Z,98615.50
2023-01-10T01:22:48.469Z,98614.16
2023-01-10T01:25:15.711Z,98621.50
2023-01-10T01:27:42.695Z,98603.31
2023-01-10T01:30:11.379Z,98508.84
2023-01-10T01:32:38.730Z,98589.69
2023-01-10T01:35:07.492Z,98595.16
2023-01-10T01:37:34.457Z,98588.19
2023-01-10T01:40:01.330Z,98598.94
2023-01-10T01:42:35.465Z,98588.06
2023-01-10T01:45:08.631Z,98598.63
2023-01-10T01:47:57.316Z,98588.47
2023-01-10T01:50:42.747Z,98595.19
2023-01-10T01:53:14.882Z,98588.72
2023-01-10T01:55:43.881Z,98498.41
2023-01-10T01:58:18.201Z,98575.72
2023-01-10T02:00:45.227Z,98592.84
2023-01-10T02:03:14.373Z,98581.16
2023-01-10T02:05:44.480Z,98580.31
2023-01-10T02:08:12.818Z,98579.22
2023-01-10T02:11:01.263Z,98569.16
2023-01-10T02:13:28.517Z,98584.50
2023-01-10T02:15:55.378Z,98584.41
2023-01-10T02:18:23.551Z,98582.00
2023-01-10T02:20:50.378Z,98577.38
2023-01-10T02:23:36.328Z,98533.03
2023-01-10T02:26:22.786Z,98503.25
2023-01-10T02:29:08.823Z,98571.56
2023-01-10T02:31:57.288Z,98564.50
2023-01-10T02:35:11.997Z,98566.72
2023-01-10T02:37:59.898Z,98564.75
2023-01-10T02:40:38.884Z,98561.47
2023-01-10T02:43:19.874Z,98542.94
2023-01-10T02:45:53.345Z,98545.09
2023-01-10T02:48:21.867Z,98545.00
2023-01-10T02:51:07.163Z,98544.34
2023-01-10T02:53:44.953Z,98533.59
2023-01-10T02:56:36.862Z,98540.22
2023-01-10T02:59:21.488Z,98547.06
2023-01-10T03:02:05.670Z,98529.72
2023-01-10T03:04:46.126Z,98527.88
2023-01-10T03:07:28.059Z,98534.31
2023-01-10T03:10:23.763Z,98529.03
2023-01-10T03:13:05.053Z,98527.94
2023-01-10T03:15:37.170Z,98526.59
2023-01-10T03:18:10.672Z,98512.19
2023-01-10T03:20:39.861Z,98516.41
2023-01-10T03:23:07.257Z,98504.72
2023-01-10T03:25:38.160Z,98503.25
2023-01-10T03:28:09.925Z,98500.22
2023-01-10T03:30:36.754Z,98510.41
2023-01-10T03:33:04.776Z,98495.69
2023-01-10T03:36:27.502Z,98491.25
2023-01-10T03:38:57.337Z,98504.81
2023-01-10T03:41:42.676Z,98502.81
2023-01-10T03:44:44.473Z,98488.28
2023-01-10T03:47:20.335Z,98489.09
2023-01-10T03:49:54.129Z,98474.78
2023-01-10T03:52:22.206Z,98480.63
2023-01-10T03:54:49.380Z,98492.78
2023-01-10T03:57:21.792Z,98501.00
2023-01-10T03:59:55.225Z,98492.25
2023-01-10T04:02:22.127Z,98500.94
2023-01-10T04:04:49.007Z,98480.66
2023-01-10T04:07:15.964Z,98481.53
2023-01-10T04:09:42.836Z,98477.91
2023-01-10T04:12:09.828Z,98495.91
2023-01-10T04:14:37.374Z,98472.47
2023-01-10T04:17:59.075Z,98477.81
2023-01-10T04:20:34.633Z,98480.66
2023-01-10T04:23:01.671Z,98482.91
2023-01-10T04:25:28.610Z,98469.34
2023-01-10T04:27:55.510Z,98483.22
2023-01-10T04:30:22.768Z,98484.22
2023-01-10T04:32:49.711Z,98472.19
2023-01-10T04:35:16.772Z,98463.50
2023-01-10T04:37:43.695Z,98478.38
2023-01-10T04:40:11.264Z,98484.13
2023-01-10T04:42:38.296Z,98471.00
2023-01-10T04:45:05.760Z,98476.34
2023-01-10T04:47:32.675Z,98460.69
2023-01-10T04:49:59.668Z,98481.06
2023-01-10T04:52:28.294Z,98460.03
2023-01-10T04:54:55.233Z,98457.41
2023-01-10T04:57:22.122Z,98463.63
2023-01-10T04:59:48.975Z,98457.38
2023-01-10T05:02:17.307Z,98456.78
2023-01-10T05:04:44.279Z,98458.41
2023-01-10T05:07:11.170Z,98462.03
2023-01-10T05:09:38.004Z,98458.50
2023-01-10T05:12:05.127Z,98472.56
2023-01-10T05:14:32.049Z,98470.47
2023-01-10T05:16:59.245Z,98481.59
2023-01-10T05:19:26.064Z,98459.38
2023-01-10T05:21:53.382Z,98479.50
2023-01-10T05:24:20.408Z,98465.44
2023-01-10T05:26:47.350Z,98484.66
2023-01-10T05:29:17.077Z,98480.59
2023-01-10T05:31:44.011Z,98452.59
2023-01-10T05:34:13.948Z,98458.91
2023-01-10T05:36:41.187Z,98463.97
2023-01-10T05:39:08.126Z,98463.09
2023-01-10T05:41:35.099Z,98459.94
2023-01-10T05:44:02.022Z,98457.06
2023-01-10T05:46:29.572Z,98444.44
2023-01-10T05:48:56.460Z,98449.91
2023-01-10T05:51:23.433Z,98449.53
2023-01-10T05:53:50.447Z,98439.72
2023-01-10T05:56:17.919Z,98448.81
2023-01-10T05:58:47.269Z,98440.13
2023-01-10T06:01:16.794Z,98449.63
2023-01-10T06:03:44.089Z,98472.38
2023-01-10T06:06:11.084Z,98476.25
2023-01-10T06:08:38.207Z,98472.09
2023-01-10T06:11:06.043Z,98483.06
2023-01-10T06:13:33.637Z,98485.97
2023-01-10T06:16:00.640Z,98491.59
2023-01-10T06:18:27.794Z,98496.44
2023-01-10T06:20:54.875Z,98498.06
2023-01-10T06:23:22.000Z,98493.22
2023-01-10T06:25:49.177Z,98489.66
2023-01-10T06:28:16.149Z,98495.81
2023-01-10T06:30:43.725Z,98483.06
2023-01-10T06:33:12.504Z,98495.66
2023-01-10T06:35:39.889Z,98499.19
2023-01-10T06:38:06.849Z,98499.84
2023-01-10T06:40:34.000Z,98505.16
2023-01-10T06:43:00.831Z,98498.72
2023-01-10T06:45:27.976Z,98515.81
2023-01-10T06:47:54.983Z,98501.59
2023-01-10T06:50:22.524Z,98509.03
2023-01-10T06:53:00.344Z,98518.69
2023-01-10T06:55:28.598Z,98504.31
2023-01-10T06:58:00.247Z,98501.72
2023-01-10T07:00:29.244Z,98502.19
2023-01-10T07:03:00.946Z,98513.00
2023-01-10T07:05:29.203Z,98508.47
2023-01-10T07:07:58.041Z,98488.13
2023-01-10T07:10:25.083Z,98503.28
2023-01-10T07:12:52.075Z,98509.72
2023-01-10T07:15:18.917Z,98505.84
2023-01-10T07:17:45.866Z,98507.56
2023-01-10T07:20:13.337Z,98516.09
2023-01-10T07:22:40.475Z,98512.69
2023-01-10T07:25:07.809Z,98503.97
2023-01-10T07:27:34.902Z,98513.97
2023-01-10T07:30:02.012Z,98526.84
2023-01-10T07:32:28.977Z,98495.34
2023-01-10T07:34:56.220Z,98511.28
2023-01-10T07:37:23.205Z,98520.81
2023-01-10T07:39:50.518Z,98515.66
2023-01-10T07:42:17.368Z,98503.19
2023-01-10T07:44:44.299Z,98515.28
2023-01-10T07:47:11.409Z,98515.28
2023-01-10T07:49:38.394Z,98526.56
2023-01-10T07:52:07.951Z,98532.38
2023-01-10T07:54:36.173Z,98483.81
2023-01-10T07:57:03.276Z,98524.88
2023-01-10T07:59:30.381Z,98518.50
2023-01-10T08:01:57.326Z,98525.56
2023-01-10T08:04:24.349Z,98516.97
2023-01-10T08:06:51.828Z,98515.31
2023-01-10T08:09:18.787Z,98540.94
2023-01-10T08:11:45.698Z,98542.88
2023-01-10T08:14:12.616Z,98534.31
2023-01-10T08:16:39.494Z,98549.81
2023-01-10T08:19:06.581Z,98550.63
2023-01-10T08:21:33.704Z,98532.97
2023-01-10T08:24:00.652Z,98543.97
2023-01-10T08:26:27.719Z,98532.69
2023-01-10T08:28:54.652Z,98541.69
2023-01-10T08:31:21.624Z,98546.13
2023-01-10T08:33:48.719Z,98546.91
2023-01-10T08:36:20.690Z,98528.66
2023-01-10T08:38:48.374Z,98545.59
2023-01-10T08:41:15.327Z,98535.50
2023-01-10T08:43:42.718Z,98532.09
2023-01-10T08:46:09.776Z,98540.00
2023-01-10T08:48:36.941Z,98532.56
2023-01-10T08:51:10.244Z,98540.75
2023-01-10T08:53:39.499Z,98523.03
2023-01-10T08:56:06.840Z,98535.19
2023-01-10T08:58:34.087Z,98536.31
2023-01-10T09:01:04.943Z,98517.13
2023-01-10T09:03:31.935Z,98534.56
2023-01-10T09:06:00.164Z,98477.13
2023-01-10T09:08:27.110Z,98529.06
2023-01-10T09:10:54.592Z,98536.84
2023-01-10T09:13:21.454Z,98536.44
2023-01-10T09:15:49.026Z,98528.53
2023-01-10T09:18:15.982Z,98515.69
2023-01-10T09:20:43.546Z,98520.72
2023-01-10T09:23:20.263Z,98503.75
2023-01-10T09:25:48.478Z,98482.88
2023-01-10T09:28:16.274Z,98457.28
2023-01-10T09:30:44.517Z,98485.22
2023-01-10T09:33:13.581Z,98476.72
2023-01-10T09:35:41.873Z,98472.97
2023-01-10T09:38:12.708Z,98466.66
2023-01-10T09:41:07.490Z,98485.03
2023-01-10T09:44:01.120Z,98482.75
2023-01-10T09:46:43.431Z,98474.94
2023-01-10T09:49:29.088Z,98482.63
2023-01-10T09:51:59.229Z,98461.25
2023-01-10T09:54:33.782Z,98462.66
2023-01-10T09:57:02.782Z,98456.56
2023-01-10T09:59:41.695Z,98465.78
2023-01-10T10:02:40.656Z,98453.38
2023-01-10T10:05:18.873Z,98472.88
2023-01-10T10:07:53.840Z,98451.53
2023-01-10T10:10:39.366Z,98437.66
2023-01-10T10:13:23.262Z,98437.75
2023-01-10T10:16:09.274Z,98434.31
2023-01-10T10:18:54.647Z,98422.16
2023-01-10T10:21:39.808Z,98414.81
2023-01-10T10:24:41.640Z,98402.63
2023-01-10T10:27:17.473Z,98410.78
2023-01-10T10:29:50.383Z,98397.28
2023-01-10T10:32:29.591Z,98391.88
2023-01-10T10:35:07.341Z,98383.56
2023-01-10T10:37:41.276Z,98370.41
2023-01-10T10:40:31.990Z,98379.09
2023-01-10T10:43:11.687Z,98365.19
2023-01-10T10:45:44.473Z,98364.88
2023-01-10T10:48:34.480Z,98358.19
2023-01-10T10:51:25.801Z,98358.75
2023-01-10T10:53:54.754Z,98299.09
2023-01-10T10:56:24.800Z,98339.28
2023-01-10T10:58:55.615Z,98346.59
2023-01-10T11:01:26.382Z,98327.56
2023-01-10T11:04:03.731Z,98323.41
2023-01-10T11:06:34.302Z,98321.59
2023-01-10T11:09:04.709Z,98311.03
2023-01-10T11:11:39.814Z,98314.69
2023-01-10T11:14:08.803Z,98267.09
2023-01-10T11:16:42.092Z,98320.88
2023-01-10T11:19:11.816Z,98318.25
2023-01-10T11:21:41.308Z,98312.28
2023-01-10T11:24:20.500Z,98311.22
2023-01-10T11:26:48.338Z,98301.38
2023-01-10T11:29:17.434Z,98307.75
2023-01-10T11:31:47.005Z,98306.78
2023-01-10T11:34:33.361Z,98292.66
2023-01-10T11:37:01.533Z,98286.41
2023-01-10T11:39:30.159Z,98291.69
2023-01-10T11:41:59.689Z,98284.78
2023-01-10T11:44:30.024Z,98279.72
2023-01-10T11:47:01.815Z,98282.72
2023-01-10T11:49:37.764Z,98289.53
2023-01-10T11:52:26.654Z,98270.72
2023-01-10T11:54:58.378Z,98288.97
2023-01-10T11:57:28.673Z,98291.75
2023-01-10T12:00:07.513Z,98297.81
2023-01-10T12:02:42.814Z,98286.69
2023-01-10T12:05:20.495Z,98293.59
2023-01-10T12:07:54.309Z,98281.31
2023-01-10T12:10:23.271Z,98265.63
2023-01-10T12:12:58.367Z,98282.31
2023-01-10T12:15:26.999Z,98288.44
2023-01-10T12:17:57.114Z,98273.03
2023-01-10T12:20:28.735Z,98282.97
2023-01-10T12:23:08.282Z,98272.44
2023-01-10T12:25:39.037Z,98256.09
2023-01-10T12:28:17.827Z,98259.41
2023-01-10T12:30:50.481Z,98267.78
2023-01-10T12:33:23.025Z,98252.75
2023-01-10T12:36:13.118Z,98268.09
2023-01-10T12:39:07.775Z,98252.63
2023-01-10T12:42:00.303Z,98251.91
2023-01-10T12:44:42.132Z,98227.91
2023-01-10T12:47:30.813Z,98243.03
2023-01-10T12:50:05.945Z,98235.47
2023-01-10T12:53:07.054Z,98231.34
2023-01-10T12:55:40.996Z,98228.84
2023-01-10T12:58:23.334Z,98157.59
2023-01-10T13:00:54.575Z,98229.97
2023-01-10T13:03:25.844Z,98168.78
2023-01-10T13:05:54.376Z,98238.84
2023-01-10T13:08:25.872Z,98240.22
2023-01-10T13:10:53.819Z,98248.38
2023-01-10T13:13:52.322Z,98234.59
2023-01-10T13:16:52.862Z,98243.31
2023-01-10T13:19:28.789Z,98236.00
2023-01-10T13:22:17.712Z,98240.59
2023-01-10T13:24:56.370Z,98226.63
2023-01-10T13:27:33.396Z,98236.25
2023-01-10T13:30:01.534Z,98242.78
2023-01-10T13:32:32.911Z,98230.63
2023-01-10T13:35:19.984Z,98230.63
2023-01-10T13:37:54.333Z,98232.81
2023-01-10T13:40:28.576Z,98221.59
2023-01-10T13:43:36.885Z,98229.38
2023-01-10T13:46:19.468Z,98240.75
2023-01-10T13:48:49.450Z,98245.44
2023-01-10T13:51:21.781Z,98242.88
2023-01-10T13:53:57.735Z,98239.69
2023-01-10T13:56:36.497Z,98242.09
2023-01-10T13:59:28.775Z,98244.03
2023-01-10T14:02:18.824Z,98232.69
2023-01-10T14:04:55.826Z,98224.91
2023-01-10T14:07:30.563Z,98210.91
2023-01-10T14:10:06.899Z,98205.53
2023-01-10T14:12:57.225Z,98196.38
2023-01-10T14:15:37.605Z,98188.22
2023-01-10T14:18:32.359Z,98196.94
2023-01-10T14:21:02.804Z,98227.44
2023-01-10T14:23:49.772Z,98232.81
2023-01-10T14:26:27.176Z,98192.94
2023-01-10T14:28:54.260Z,98232.38
2023-01-10T14:31:26.462Z,98229.38
2023-01-10T14:33:54.166Z,98228.94
2023-01-10T14:36:37.353Z,98230.31
2023-01-10T14:39:07.784Z,98232.22
2023-01-10T14:41:42.746Z,98225.69
2023-01-10T14:44:45.895Z,98174.81
2023-01-10T14:47:29.936Z,98210.91
2023-01-10T14:50:06.815Z,98198.44
2023-01-10T14:52:34.151Z,98193.50
2023-01-10T14:55:16.982Z,98199.00
2023-01-10T14:58:01.932Z,98211.72
2023-01-10T15:00:36.562Z,98218.38
2023-01-10T15:03:04.509Z,98216.44
2023-01-10T15:05:37.549Z,98215.63
2023-01-10T15:08:24.092Z,98233.28
2023-01-10T15:10:54.874Z,98210.81
2023-01-10T15:13:28.269Z,98211.94
2023-01-10T15:15:56.582Z,98216.44
2023-01-10T15:18:45.921Z,98176.88
2023-01-10T15:21:15.404Z,98207.81
2023-01-10T15:23:44.546Z,98179.75
2023-01-10T15:26:27.687Z,98205.88
2023-01-10T15:29:20.541Z,98197.41
2023-01-10T15:31:47.574Z,98202.91
2023-01-10T15:34:29.895Z,98196.38
2023-01-10T15:36:58.495Z,98200.38
2023-01-10T15:39:29.428Z,98173.09
2023-01-10T15:42:00.678Z,98219.63
2023-01-10T15:44:39.722Z,98231.78
2023-01-10T15:47:37.067Z,98225.94
2023-01-10T15:50:21.291Z,98252.22
2023-01-10T15:52:57.639Z,98246.69
2023-01-10T15:55:46.699Z,98270.09
2023-01-10T15:58:19.124Z,98255.75
2023-01-10T16:00:47.867Z,98244.75
2023-01-10T16:03:36.986Z,98244.63
2023-01-10T16:06:09.781Z,98250.94
2023-01-10T16:08:38.784Z,98255.31
2023-01-10T16:11:08.927Z,98235.34
2023-01-10T16:13:37.521Z,98249.81
2023-01-10T16:16:15.316Z,98231.00
2023-01-10T16:18:42.518Z,98232.25
2023-01-10T16:21:11.698Z,98264.38
2023-01-10T16:23:46.045Z,98286.63
2023-01-10T16:26:14.816Z,98292.47
2023-01-10T16:28:41.777Z,98284.88
2023-01-10T16:31:14.743Z,98295.91
2023-01-10T16:33:42.216Z,98292.13
2023-01-10T16:36:18.656Z,98286.34
2023-01-10T16:38:45.626Z,98308.47
2023-01-10T16:41:33.005Z,98317.16
2023-01-10T16:44:00.866Z,98321.53
2023-01-10T16:46:27.952Z,98336.00
2023-01-10T16:48:55.082Z,98338.88
2023-01-10T16:51:32.420Z,98322.94
2023-01-10T16:53:59.446Z,98326.84
2023-01-10T16:56:28.633Z,98336.41
2023-01-10T16:58:55.958Z,98313.56
2023-01-10T17:01:28.821Z,98311.94
2023-01-10T17:03:56.560Z,98316.78
2023-01-10T17:06:23.611Z,98309.31
2023-01-10T17:08:50.650Z,98320.69
2023-01-10T17:11:22.899Z,98318.59
2023-01-10T17:13:50.004Z,98312.28
2023-01-10T17:16:19.403Z,98302.66
2023-01-10T17:18:47.579Z,98297.94
2023-01-10T17:21:22.161Z,98290.94
2023-01-10T17:23:49.982Z,98297.50
2023-01-10T17:26:18.620Z,98312.19
2023-01-10T17:28:46.699Z,98328.47
2023-01-10T17:31:13.681Z,98329.97
2023-01-10T17:33:40.613Z,98317.69
2023-01-10T17:36:08.054Z,98345.91
2023-01-10T17:38:34.864Z,98354.88
2023-01-10T17:41:02.263Z,98342.38
2023-01-10T17:43:30.751Z,98356.03
2023-01-10T17:45:59.078Z,98371.75
2023-01-10T17:48:26.634Z,98365.91
2023-01-10T17:50:59.406Z,98384.50
2023-01-10T17:53:26.667Z,98379.66
2023-01-10T17:55:53.994Z,98369.69
2023-01-10T17:58:21.486Z,98384.03
2023-01-10T18:00:49.030Z,98374.03
2023-01-10T18:03:16.682Z,98371.41
2023-01-10T18:05:54.891Z,98378.75
2023-01-10T18:08:22.708Z,98367.63
2023-01-10T18:10:50.132Z,98362.34
2023-01-10T18:13:18.781Z,98359.25
2023-01-10T18:15:49.405Z,98377.59
2023-01-10T18:18:18.374Z,98373.00
2023-01-10T18:20:45.670Z,98374.75
2023-01-10T18:23:23.076Z,98378.28
2023-01-10T18:26:00.158Z,98387.94
2023-01-10T18:28:40.664Z,98353.28
2023-01-10T18:31:11.050Z,98387.59
2023-01-10T18:33:39.230Z,98406.97
2023-01-10T18:36:07.903Z,98388.25
2023-01-10T18:38:36.976Z,98420.25
2023-01-10T18:41:04.583Z,98426.19
2023-01-10T18:43:33.982Z,98424.00
2023-01-10T18:46:14.215Z,98424.72
2023-01-10T18:48:41.975Z,98439.31
2023-01-10T18:51:12.970Z,98437.41
2023-01-10T18:53:42.289Z,98437.81
2023-01-10T18:56:10.362Z,98441.84
2023-01-10T18:58:41.935Z,98463.97
2023-01-10T19:01:16.860Z,98463.88
2023-01-10T19:03:44.732Z,98467.91
2023-01-10T19:06:17.271Z,98473.19
2023-01-10T19:08:46.006Z,98486.03
2023-01-10T19:11:16.773Z,98462.94
2023-01-10T19:13:45.112Z,98487.91
2023-01-10T19:16:13.915Z,98484.34
2023-01-10T19:18:41.540Z,98479.56
2023-01-10T19:21:16.051Z,98500.84
2023-01-10T19:23:45.009Z,98504.06
2023-01-10T19:26:13.143Z,98487.91
2023-01-10T19:28:40.989Z,98526.47
2023-01-10T19:31:08.467Z,98532.00
2023-01-10T19:33:37.939Z,98524.38
2023-01-10T19:36:06.989Z,98529.66
2023-01-10T19:38:34.705Z,98521.41
2023-01-10T19:41:02.063Z,98545.63
2023-01-10T19:43:29.541Z,98524.69
2023-01-10T19:45:56.902Z,98543.72
2023-01-10T19:48:24.696Z,98534.00
2023-01-10T19:50:52.388Z,98555.31
2023-01-10T19:53:24.066Z,98546.13
2023-01-10T19:55:59.217Z,98567.69
2023-01-10T19:58:27.147Z,98561.84
2023-01-10T20:00:54.284Z,98562.75
2023-01-10T20:03:21.586Z,98567.28
2023-01-10T20:05:48.589Z,98579.91
2023-01-10T20:08:20.701Z,98586.78
2023-01-10T20:10:48.106Z,98588.06
2023-01-10T20:13:15.655Z,98604.81
2023-01-10T20:15:43.572Z,98605.44
2023-01-10T20:18:10.650Z,98604.88
2023-01-10T20:20:38.301Z,98631.50
2023-01-10T20:23:07.156Z,98645.66
2023-01-10T20:25:39.087Z,98648.59
2023-01-10T20:28:16.352Z,98670.44
2023-01-10T20:30:45.159Z,98637.34
2023-01-10T20:33:16.106Z,98687.03
2023-01-10T20:35:45.618Z,98688.16
2023-01-10T20:38:13.063Z,98693.81
2023-01-10T20:40:43.602Z,98692.72
2023-01-10T20:43:12.131Z,98688.56
2023-01-10T20:45:42.833Z,98685.22
2023-01-10T20:48:10.440Z,98682.41
2023-01-10T20:50:38.347Z,98683.09
2023-01-10T20:53:05.362Z,98687.88
2023-01-10T20:55:35.287Z,98674.72
2023-01-10T20:58:03.061Z,98705.69
2023-01-10T21:00:30.913Z,98703.97
2023-01-10T21:02:58.059Z,98698.09
2023-01-10T21:05:25.120Z,98700.22
2023-01-10T21:07:52.052Z,98710.53
2023-01-10T21:10:19.056Z,98697.97
2023-01-10T21:12:46.101Z,98725.72
2023-01-10T21:15:13.147Z,98716.19
2023-01-10T21:17:42.038Z,98741.72
2023-01-10T21:20:10.541Z,98736.75
2023-01-10T21:22:37.478Z,98740.00
2023-01-10T21:25:04.745Z,98729.97
2023-01-10T21:27:31.962Z,98749.59
2023-01-10T21:29:59.273Z,98744.31
2023-01-10T21:32:26.513Z,98768.00
2023-01-10T21:34:53.377Z,98743.81
2023-01-10T21:37:20.343Z,98742.72
2023-01-10T21:39:47.249Z,98743.72
2023-01-10T21:42:32.477Z,98753.63
2023-01-10T21:44:59.341Z,98751.91
2023-01-10T21:47:26.313Z,98776.13
2023-01-10T21:49:53.265Z,98759.31
2023-01-10T21:52:20.473Z,98770.25
2023-01-10T21:54:47.292Z,98762.34
2023-01-10T21:57:14.228Z,98760.72
2023-01-10T21:59:41.725Z,98773.09
2023-01-10T22:02:15.932Z,98767.19
2023-01-10T22:04:53.412Z,98755.25
2023-01-10T22:07:28.344Z,98750.38
2023-01-10T22:09:55.402Z,98754.06
2023-01-10T22:12:24.302Z,98762.47
2023-01-10T22:14:51.115Z,98742.91
2023-01-10T22:17:18.154Z,98740.78
2023-01-10T22:19:45.130Z,98723.06
2023-01-10T22:22:12.261Z,98743.22
2023-01-10T22:24:41.957Z,98742.91
2023-01-10T22:27:08.984Z,98739.25
2023-01-10T22:29:36.004Z,98741.59
2023-01-10T22:32:03.024Z,98738.84
2023-01-10T22:34:29.918Z,98730.84
2023-01-10T22:36:56.933Z,98723.47
2023-01-10T22:39:23.973Z,98736.53
2023-01-10T22:41:53.500Z,98735.72
2023-01-10T22:44:22.972Z,98723.75
2023-01-10T22:46:51.720Z,98749.06
2023-01-10T22:49:18.988Z,98766.41
2023-01-10T22:51:46.173Z,98753.13
2023-01-10T22:54:15.886Z,98749.88
2023-01-10T22:56:43.807Z,98762.13
2023-01-10T22:59:11.430Z,98778.72
2023-01-10T23:01:39.109Z,98787.69
2023-01-10T23:04:06.296Z,98807.84
2023-01-10T23:06:33.292Z,98797.91
2023-01-10T23:09:00.410Z,98807.34
2023-01-10T23:11:27.341Z,98792.81
2023-01-10T23:13:54.206Z,98809.84
2023-01-10T23:16:28.598Z,98840.03
2023-01-10T23:18:57.556Z,98842.25
2023-01-10T23:21:25.995Z,98840.34
2023-01-10T23:23:53.069Z,98859.16
2023-01-10T23:26:19.981Z,98843.38
2023-01-10T23:28:49.443Z,98837.81
2023-01-10T23:31:19.873Z,98832.66
2023-01-10T23:33:47.825Z,98836.78
2023-01-10T23:36:15.199Z,98844.69
2023-01-10T23:38:42.575Z,98823.91
2023-01-10T23:41:09.763Z,98850.31
2023-01-10T23:43:37.863Z,98851.13
2023-01-10T23:46:06.096Z,98851.94
2023-01-10T23:48:33.349Z,98851.72
2023-01-10T23:51:00.282Z,98858.09
2023-01-10T23:53:27.348Z,98869.22
2023-01-10T23:55:54.479Z,98858.16
2023-01-10T23:58:21.444Z,98851.50
